Briefing drone pour Saint-etienne (LFMH)

Rechercher une autre localisation

Conditions de vol :


Nous sommes le : Samedi 03 décembre 2022
Il est 09:47 UTC (10:47 LT)

Lever de soleil : 06:37 UTC (07:37 LT)
Coucher de soleil : 16:26 UTC (17:26 LT)

Météo

L'essentiel des conditions de vol

VIGILANCE MÉTÉO FRANCE - Loire (42)
Vigilance Jaune : Neige-verglas
CARTES DES FRONTS
METAR de LFMH
LFMH 030930Z AUTO VRB02KT 4400 BR BKN005/// OVC009/// ///TCU 03/02 Q1012

Date d'émission: 03/12/2022
Heure d'émission: 09:30 UTC
Vent: Variable 2 KT (4 km/h)
Visibilité horizontale: 4400 m
Plafond :
- Nuages morcelés à 500ft (152m)
- Couvert à 900ft (274m)
Température: 3 °C
Point de rosée: 2 °C
Humidité: 93%
Pression (QNH): 1012 hPa
Conditions: Brume
TAF de LFMH
LFMH 161901Z 1619/1712 CNL

Conditions prévues :

Heure d'émission : Bulletin éffectué le 16 à 19:00 UTC
Prévision : Valide du 16 a 19:00 UTC au 17 a 12:00 UTC
Nuages : à 0ft (0 m)
WEBCAM POUR SAINT-ETIENNE

Réglementation

Voler en sécurité

CARTES AERONAUTIQUE 1/500.000
CARTE AZBA (Reseau basse altitude)
CARTES VAC (LFMH)
SUP AIP




Chargement des AIP...
NOTAM (SAINT-ETIENNE + Terrain à proximité / FIR )




Chargement des NOTAMS...
CONTACT PREFECTURE 42


Avertissement : Les données mises à disposition sont indicatives. Oxygène Drone ne pourra être tenu responsable de dégâts causés aux biens et aux personnes.